createdAt,value
2023-03-28T00:02:12.042Z,2.7
2023-03-28T00:05:14.016Z,2.4
2023-03-28T00:08:15.982Z,2.4
2023-03-28T00:11:17.934Z,2.5
2023-03-28T00:14:19.914Z,3.1
2023-03-28T00:17:21.877Z,2.8
2023-03-28T00:20:23.834Z,3.1
2023-03-28T00:23:25.802Z,3.1
2023-03-28T00:26:27.760Z,3.1
2023-03-28T00:29:29.710Z,3.2
2023-03-28T00:32:31.702Z,3.4
2023-03-28T00:35:33.683Z,3.2
2023-03-28T00:38:35.636Z,3.1
2023-03-28T00:41:37.575Z,3.6
2023-03-28T00:44:39.557Z,2.8
2023-03-28T00:47:41.522Z,3
2023-03-28T00:50:43.486Z,2.9
2023-03-28T00:53:45.447Z,2.7
2023-03-28T00:56:47.473Z,3.2
2023-03-28T00:59:49.364Z,3.5
2023-03-28T01:02:51.574Z,3.1
2023-03-28T01:05:53.283Z,3.3
2023-03-28T01:08:55.347Z,3.4
2023-03-28T01:11:57.230Z,3.3
2023-03-28T01:14:59.194Z,3.5
2023-03-28T01:18:01.187Z,2.7
2023-03-28T01:21:03.158Z,2.9
2023-03-28T01:24:11.121Z,2.6
2023-03-28T01:27:07.056Z,2.9
2023-03-28T01:30:09.010Z,2.3
2023-03-28T01:33:11.070Z,3.3
2023-03-28T01:36:12.929Z,3.1
2023-03-28T01:39:14.879Z,3.7
2023-03-28T01:42:16.878Z,3.1
2023-03-28T01:45:18.813Z,3.1
2023-03-28T01:48:20.767Z,3
2023-03-28T01:51:22.730Z,2.7
2023-03-28T01:54:24.718Z,3.6
2023-03-28T01:57:26.715Z,3.4
2023-03-28T02:00:28.629Z,3
2023-03-28T02:03:30.672Z,3.4
2023-03-28T02:06:32.668Z,2.8
2023-03-28T02:09:34.583Z,3.2
2023-03-28T02:12:36.552Z,3.1
2023-03-28T02:15:38.536Z,3.3
2023-03-28T02:18:40.529Z,3.4
2023-03-28T02:21:42.475Z,2.4
2023-03-28T02:24:44.451Z,3.3
2023-03-28T02:27:46.437Z,2.8
2023-03-28T02:30:48.410Z,3.3
2023-03-28T02:33:50.400Z,3.3
2023-03-28T02:36:52.342Z,2.8
2023-03-28T02:39:54.320Z,3.2
2023-03-28T02:42:56.277Z,3.8
2023-03-28T02:45:58.608Z,3.6
2023-03-28T02:49:00.231Z,3.6
2023-03-28T02:52:02.239Z,3.4
2023-03-28T02:55:04.161Z,3.5
2023-03-28T02:58:06.153Z,3.5
2023-03-28T03:01:08.131Z,4.4
2023-03-28T03:04:10.119Z,3.5
2023-03-28T03:07:12.026Z,3.1
2023-03-28T03:10:14.010Z,3.3
2023-03-28T03:13:16.138Z,3.3
2023-03-28T03:16:17.951Z,3.4
2023-03-28T03:19:19.926Z,4.1
2023-03-28T03:22:21.857Z,3.9
2023-03-28T03:25:23.813Z,3.6
2023-03-28T03:28:25.790Z,3.5
2023-03-28T03:31:27.766Z,3.5
2023-03-28T03:34:29.711Z,3.6
2023-03-28T03:37:31.686Z,3.7
2023-03-28T03:40:33.654Z,3.9
2023-03-28T03:43:35.641Z,4.2
2023-03-28T03:46:37.608Z,4.6
2023-03-28T03:49:39.538Z,4.3
2023-03-28T03:52:41.502Z,3.8
2023-03-28T03:55:43.460Z,4.9
2023-03-28T03:58:45.441Z,4.4
2023-03-28T04:01:47.442Z,4.2
2023-03-28T04:04:49.411Z,4.7
2023-03-28T04:07:51.398Z,4.7
2023-03-28T04:10:53.349Z,5.6
2023-03-28T04:13:55.844Z,5.4
2023-03-28T04:16:57.285Z,5.3
2023-03-28T04:19:59.248Z,4.5
2023-03-28T04:23:01.220Z,4.9
2023-03-28T04:26:03.192Z,4.8
2023-03-28T04:29:05.145Z,4.6
2023-03-28T04:32:07.126Z,4.6
2023-03-28T04:35:09.094Z,5
2023-03-28T04:38:20.185Z,6
2023-03-28T04:41:13.666Z,4.9
2023-03-28T04:44:14.969Z,5
2023-03-28T04:47:16.942Z,4.5
2023-03-28T04:50:18.887Z,5.4
2023-03-28T04:53:20.870Z,4.9
2023-03-28T04:56:22.832Z,4.7
2023-03-28T04:59:24.829Z,4.9
2023-03-28T05:02:26.804Z,4.8
2023-03-28T05:05:28.717Z,4.4
2023-03-28T05:08:30.711Z,5
2023-03-28T05:11:32.690Z,4.2
2023-03-28T05:14:34.656Z,5
2023-03-28T05:17:36.668Z,4.8
2023-03-28T05:20:38.602Z,3.9
2023-03-28T05:23:40.589Z,3.9
2023-03-28T05:26:42.540Z,3.9
2023-03-28T05:29:44.498Z,4.5
2023-03-28T05:32:46.492Z,3.7
2023-03-28T05:35:48.458Z,3.6
2023-03-28T05:38:50.408Z,3.5
2023-03-28T05:41:52.402Z,3.9
2023-03-28T05:44:54.377Z,3.9
2023-03-28T05:47:56.388Z,4.4
2023-03-28T05:50:58.482Z,4.5
2023-03-28T05:54:00.267Z,4.9
2023-03-28T05:57:02.281Z,4.4
2023-03-28T06:00:04.229Z,3.9
2023-03-28T06:03:06.206Z,4.5
2023-03-28T06:06:08.163Z,4.2
2023-03-28T06:09:10.119Z,4.1
2023-03-28T06:12:12.093Z,5
2023-03-28T06:15:14.050Z,4.4
2023-03-28T06:18:16.056Z,4.3
2023-03-28T06:21:17.994Z,4.6
2023-03-28T06:24:19.940Z,4.5
2023-03-28T06:27:21.901Z,4.6
2023-03-28T06:30:23.936Z,4.9
2023-03-28T06:33:25.893Z,5
2023-03-28T06:36:27.878Z,4.2
2023-03-28T06:39:29.817Z,4
2023-03-28T06:42:31.812Z,3.6
2023-03-28T06:45:33.787Z,3
2023-03-28T06:48:36.491Z,3.4
2023-03-28T06:51:37.790Z,3.2
2023-03-28T06:54:39.694Z,4.3
2023-03-28T06:57:41.661Z,3.2
2023-03-28T07:00:43.643Z,3.6
2023-03-28T07:03:45.731Z,3.9
2023-03-28T07:06:47.555Z,3.4
2023-03-28T07:09:49.545Z,3.8
2023-03-28T07:12:51.491Z,3.5
2023-03-28T07:15:53.495Z,3.6
2023-03-28T07:18:55.650Z,3.8
2023-03-28T07:21:57.410Z,3.4
2023-03-28T07:24:59.390Z,3.8
2023-03-28T07:28:01.348Z,2.6
2023-03-28T07:31:03.284Z,3.1
2023-03-28T07:34:05.290Z,3.3
2023-03-28T07:37:07.231Z,3.5
2023-03-28T07:40:09.215Z,4.1
2023-03-28T07:43:11.163Z,3
2023-03-28T07:46:13.130Z,2.9
2023-03-28T07:49:15.098Z,3.1
2023-03-28T07:52:17.049Z,2.9
2023-03-28T07:55:19.006Z,3.6
2023-03-28T07:58:20.956Z,3.1
2023-03-28T08:01:22.942Z,3.4
2023-03-28T08:04:24.918Z,3.4
2023-03-28T08:07:26.867Z,3.4
2023-03-28T08:10:28.853Z,3.2
2023-03-28T08:13:30.828Z,3.2
2023-03-28T08:16:32.813Z,3.6
2023-03-28T08:19:34.768Z,2.9
2023-03-28T08:22:36.727Z,3.1
2023-03-28T08:25:38.701Z,2.3
2023-03-28T08:28:40.732Z,3.2
2023-03-28T08:31:42.727Z,2.7
2023-03-28T08:34:44.651Z,2.3
2023-03-28T08:37:46.610Z,2
2023-03-28T08:40:48.603Z,2
2023-03-28T08:43:50.587Z,1.8
2023-03-28T08:46:52.577Z,2.3
2023-03-28T08:49:54.592Z,2.1
2023-03-28T08:52:56.556Z,2
2023-03-28T08:55:58.518Z,1.9
2023-03-28T08:59:00.476Z,1.7
2023-03-28T09:02:02.472Z,2
2023-03-28T09:05:21.787Z,1.9
2023-03-28T09:08:06.358Z,2.2
2023-03-28T09:11:08.497Z,1.9
2023-03-28T09:14:10.521Z,2.2
2023-03-28T09:17:12.318Z,1.9
2023-03-28T09:20:14.275Z,2
2023-03-28T09:23:16.254Z,1.1
2023-03-28T09:26:18.206Z,1.6
2023-03-28T09:29:20.177Z,1.4
2023-03-28T09:32:22.263Z,1.7
2023-03-28T09:35:24.165Z,1.5
2023-03-28T09:38:26.098Z,1.8
2023-03-28T09:41:28.058Z,2
2023-03-28T09:44:30.032Z,1.5
2023-03-28T09:47:32.197Z,1.3
2023-03-28T09:50:34.093Z,1.4
2023-03-28T09:53:36.036Z,1.8
2023-03-28T09:56:38.006Z,1.7
2023-03-28T09:59:42.719Z,1.4
2023-03-28T10:02:44.789Z,1.9
2023-03-28T10:05:46.641Z,1.3
2023-03-28T10:08:51.706Z,1.6
2023-03-28T10:11:53.672Z,1.2
2023-03-28T10:14:58.492Z,1
2023-03-28T10:18:00.565Z,1.6
2023-03-28T10:21:02.442Z,1.2
2023-03-28T10:24:04.417Z,1.1
2023-03-28T10:27:06.361Z,1
2023-03-28T10:30:08.395Z,1.2
2023-03-28T10:33:10.388Z,1.2
2023-03-28T10:36:12.380Z,1.1
2023-03-28T10:39:14.308Z,0.9
2023-03-28T10:42:16.270Z,1.6
2023-03-28T10:45:21.213Z,1
2023-03-28T10:48:23.206Z,1.1
2023-03-28T10:51:25.171Z,1.1
2023-03-28T10:54:27.141Z,0.9
2023-03-28T10:57:29.104Z,1.2
2023-03-28T11:00:31.059Z,1
2023-03-28T11:03:33.087Z,1
2023-03-28T11:06:34.989Z,1.1
2023-03-28T11:09:36.951Z,1
2023-03-28T11:12:47.662Z,0.9
2023-03-28T11:15:40.866Z,1.3
2023-03-28T11:18:42.832Z,1.2
2023-03-28T11:21:44.799Z,0.9
2023-03-28T11:24:46.762Z,0.6
2023-03-28T11:27:48.716Z,1.6
2023-03-28T11:30:50.683Z,1.1
2023-03-28T11:33:52.645Z,1.1
2023-03-28T11:36:54.608Z,1.4
2023-03-28T11:39:56.572Z,1.1
2023-03-28T11:42:58.534Z,1.1
2023-03-28T11:46:00.588Z,1.2
2023-03-28T11:49:02.490Z,1.1
2023-03-28T11:52:04.516Z,1.2
2023-03-28T11:55:06.417Z,1.1
2023-03-28T11:58:08.389Z,1.2
2023-03-28T12:01:10.433Z,0.8
2023-03-28T12:04:12.360Z,0.9
2023-03-28T12:07:14.316Z,0.6
2023-03-28T12:10:16.279Z,0.7
2023-03-28T12:13:18.241Z,0.9
2023-03-28T12:16:20.234Z,0.7
2023-03-28T12:19:22.158Z,0.8
2023-03-28T12:22:24.136Z,1.1
2023-03-28T12:25:26.122Z,1
2023-03-28T12:28:28.084Z,1
2023-03-28T12:31:30.070Z,1.2
2023-03-28T12:34:32.024Z,0.9
2023-03-28T12:37:33.969Z,1
2023-03-28T12:40:35.923Z,1
2023-03-28T12:43:37.902Z,1.1
2023-03-28T12:46:39.879Z,1.3
2023-03-28T12:49:41.792Z,0.9
2023-03-28T12:52:43.866Z,0.7
2023-03-28T12:55:45.713Z,1.2
2023-03-28T12:58:47.691Z,0.7
2023-03-28T13:01:49.667Z,1.4
2023-03-28T13:04:51.619Z,1
2023-03-28T13:07:53.560Z,0.9
2023-03-28T13:10:55.529Z,0.9
2023-03-28T13:13:59.141Z,0.6
2023-03-28T13:16:59.450Z,0.9
2023-03-28T13:20:01.403Z,0.8
2023-03-28T13:23:03.390Z,0.8
2023-03-28T13:26:05.347Z,1
2023-03-28T13:29:07.315Z,0.8
2023-03-28T13:32:09.259Z,1
2023-03-28T13:35:11.233Z,1
2023-03-28T13:38:13.199Z,1
2023-03-28T13:41:15.155Z,1.1
2023-03-28T13:44:17.129Z,0.8
2023-03-28T13:47:19.080Z,1.3
2023-03-28T13:50:21.040Z,0.9
2023-03-28T13:53:23.012Z,1.2
2023-03-28T13:56:25.005Z,1
2023-03-28T13:59:26.927Z,1
2023-03-28T14:02:29.022Z,1
2023-03-28T14:05:30.836Z,0.9
2023-03-28T14:08:32.814Z,0.9
2023-03-28T14:11:34.767Z,1.3
2023-03-28T14:14:36.721Z,1
2023-03-28T14:17:38.689Z,0.8
2023-03-28T14:20:40.690Z,1
2023-03-28T14:23:42.615Z,1
2023-03-28T14:26:44.565Z,1.1
2023-03-28T14:29:46.545Z,0.9
2023-03-28T14:32:56.878Z,1.1
2023-03-28T14:35:50.481Z,1.2
2023-03-28T14:38:52.425Z,1.2
2023-03-28T14:41:54.375Z,1.3
2023-03-28T14:44:56.490Z,1
2023-03-28T14:47:58.294Z,1.3
2023-03-28T14:51:00.411Z,1.1
2023-03-28T14:54:02.200Z,1.6
2023-03-28T14:57:04.190Z,1.4
2023-03-28T15:00:06.139Z,1.4
2023-03-28T15:03:08.153Z,1.2
2023-03-28T15:06:10.070Z,1.3
2023-03-28T15:09:12.030Z,1.1
2023-03-28T15:12:13.983Z,1
2023-03-28T15:15:15.953Z,1
2023-03-28T15:18:17.921Z,1.3
2023-03-28T15:21:19.880Z,1.3
2023-03-28T15:24:21.840Z,1.6
2023-03-28T15:27:23.812Z,1.3
2023-03-28T15:30:25.749Z,1.4
2023-03-28T15:33:27.725Z,1.1
2023-03-28T15:36:29.658Z,1.2
2023-03-28T15:39:31.607Z,1.3
2023-03-28T15:42:33.630Z,1
2023-03-28T15:45:35.604Z,1.4
2023-03-28T15:48:37.566Z,1.2
2023-03-28T15:51:39.516Z,1.2
2023-03-28T15:54:41.484Z,1.4
2023-03-28T15:57:43.446Z,1.3
2023-03-28T16:00:45.430Z,1.3
2023-03-28T16:03:47.419Z,1.1
2023-03-28T16:06:49.385Z,1.2
2023-03-28T16:09:51.362Z,1.3
2023-03-28T16:12:53.314Z,1.5
2023-03-28T16:15:55.348Z,1.2
2023-03-28T16:18:57.243Z,1.8
2023-03-28T16:22:01.153Z,1.6
2023-03-28T16:25:01.155Z,1.2
2023-03-28T16:28:03.123Z,1.3
2023-03-28T16:31:05.093Z,1.4
2023-03-28T16:34:09.310Z,2
2023-03-28T16:37:08.990Z,1.5
2023-03-28T16:40:10.933Z,1.3
2023-03-28T16:43:12.886Z,1.7
2023-03-28T16:46:14.914Z,1.5
2023-03-28T16:49:16.825Z,1.2
2023-03-28T16:52:18.765Z,1.9
2023-03-28T16:55:20.740Z,1.6
2023-03-28T16:58:22.768Z,1.4
2023-03-28T17:01:24.735Z,1.3
2023-03-28T17:04:27.992Z,1.3
2023-03-28T17:07:28.618Z,1.3
2023-03-28T17:10:30.572Z,1.5
2023-03-28T17:13:32.531Z,1.4
2023-03-28T17:16:34.589Z,1.3
2023-03-28T17:19:36.481Z,1.3
2023-03-28T17:22:38.426Z,1.2
2023-03-28T17:25:52.095Z,1.4
2023-03-28T17:28:42.352Z,1.7
2023-03-28T17:31:44.323Z,1.4
2023-03-28T17:34:46.390Z,1.1
2023-03-28T17:37:48.292Z,1.2
2023-03-28T17:40:50.228Z,1.1
2023-03-28T17:43:52.235Z,1.4
2023-03-28T17:46:54.312Z,1.3
2023-03-28T17:49:56.360Z,1.1
2023-03-28T17:52:58.123Z,1.4
2023-03-28T17:56:00.289Z,1.4
2023-03-28T17:59:02.066Z,1.5
2023-03-28T18:02:04.087Z,1.1
2023-03-28T18:05:05.984Z,1.8
2023-03-28T18:08:07.949Z,2.2
2023-03-28T18:11:09.911Z,1.5
2023-03-28T18:14:11.877Z,1.5
2023-03-28T18:17:13.828Z,1.9
2023-03-28T18:20:15.862Z,1.7
2023-03-28T18:23:17.774Z,1.5
2023-03-28T18:26:19.745Z,1.6
2023-03-28T18:29:21.717Z,1.5
2023-03-28T18:32:23.696Z,1.6
2023-03-28T18:35:25.733Z,1.5
2023-03-28T18:38:27.591Z,1.7
2023-03-28T18:41:29.551Z,1.8
2023-03-28T18:44:31.547Z,1.6
2023-03-28T18:47:33.527Z,1.7
2023-03-28T18:50:35.460Z,2
2023-03-28T18:53:37.432Z,1.9
2023-03-28T18:56:39.421Z,1.6
2023-03-28T18:59:41.369Z,1.9
2023-03-28T19:02:43.432Z,1.9
2023-03-28T19:05:45.284Z,1.7
2023-03-28T19:08:47.287Z,1.6
2023-03-28T19:11:49.191Z,1.8
2023-03-28T19:14:51.164Z,1.8
2023-03-28T19:17:53.144Z,1.9
2023-03-28T19:20:55.071Z,1.7
2023-03-28T19:23:57.041Z,1.9
2023-03-28T19:26:59.784Z,1.8
2023-03-28T19:30:00.980Z,1.9
2023-03-28T19:33:04.322Z,1.8
2023-03-28T19:36:05.391Z,1.5
2023-03-28T19:39:06.861Z,1.7
2023-03-28T19:42:08.820Z,1.7
2023-03-28T19:45:10.791Z,1.8
2023-03-28T19:48:12.794Z,2
2023-03-28T19:51:14.713Z,1.6
2023-03-28T19:54:16.687Z,1.8
2023-03-28T19:57:18.683Z,2
2023-03-28T20:00:20.602Z,1.8
2023-03-28T20:03:22.595Z,1.7
2023-03-28T20:06:24.605Z,1.8
2023-03-28T20:09:26.568Z,1.5
2023-03-28T20:12:28.541Z,1.7
2023-03-28T20:15:30.666Z,1.5
2023-03-28T20:18:32.485Z,1.7
2023-03-28T20:21:34.409Z,1.7
2023-03-28T20:24:36.415Z,1.8
2023-03-28T20:27:38.349Z,1.5
2023-03-28T20:30:40.318Z,1.7
2023-03-28T20:33:42.279Z,1.5
2023-03-28T20:36:44.223Z,1.8
2023-03-28T20:39:46.195Z,1.3
2023-03-28T20:42:48.162Z,1.2
2023-03-28T20:45:50.120Z,1.6
2023-03-28T20:48:52.546Z,2
2023-03-28T20:51:54.042Z,1.6
2023-03-28T20:54:56.016Z,1.4
2023-03-28T20:57:57.959Z,1.3
2023-03-28T21:01:00.229Z,1.5
2023-03-28T21:04:01.952Z,1.5
2023-03-28T21:07:04.059Z,1.7
2023-03-28T21:10:05.892Z,1.3
2023-03-28T21:13:07.807Z,1.3
2023-03-28T21:16:09.784Z,1.1
2023-03-28T21:19:11.736Z,1.3
2023-03-28T21:22:13.685Z,1.3
2023-03-28T21:25:15.662Z,1.3
2023-03-28T21:28:17.631Z,1
2023-03-28T21:31:19.717Z,1.3
2023-03-28T21:34:21.694Z,1.2
2023-03-28T21:37:23.519Z,1.5
2023-03-28T21:40:25.481Z,1.2
2023-03-28T21:43:27.431Z,1
2023-03-28T21:46:29.515Z,1.1
2023-03-28T21:49:31.332Z,1.1
2023-03-28T21:52:33.294Z,1.1
2023-03-28T21:55:35.289Z,1.2
2023-03-28T21:58:37.250Z,1.2
2023-03-28T22:01:39.248Z,1.1
2023-03-28T22:04:41.186Z,1
2023-03-28T22:07:43.129Z,1.1
2023-03-28T22:10:45.154Z,1.1
2023-03-28T22:13:47.145Z,1
2023-03-28T22:16:49.086Z,1.1
2023-03-28T22:19:51.067Z,1.4
2023-03-28T22:22:53.003Z,1.4
2023-03-28T22:25:54.971Z,1.7
2023-03-28T22:28:56.939Z,1.2
2023-03-28T22:31:58.894Z,1.4
2023-03-28T22:35:00.972Z,1.4
2023-03-28T22:38:02.949Z,1.3
2023-03-28T22:41:04.885Z,1.4
2023-03-28T22:44:06.850Z,1.4
2023-03-28T22:47:08.809Z,1.3
2023-03-28T22:50:10.758Z,1.3
2023-03-28T22:53:12.739Z,1.1
2023-03-28T22:56:14.700Z,0.9
2023-03-28T22:59:16.676Z,1
2023-03-28T23:02:18.631Z,1
2023-03-28T23:05:20.649Z,1.4
2023-03-28T23:08:22.539Z,1.4
2023-03-28T23:11:24.495Z,1
2023-03-28T23:14:26.485Z,1.5
2023-03-28T23:17:28.498Z,1.1
2023-03-28T23:20:30.400Z,1.4
2023-03-28T23:23:32.414Z,1.2
2023-03-28T23:26:34.318Z,1
2023-03-28T23:29:36.504Z,1
2023-03-28T23:32:38.371Z,1.2
2023-03-28T23:35:40.332Z,1.2
2023-03-28T23:38:42.277Z,1.1
2023-03-28T23:41:44.435Z,1.1
2023-03-28T23:44:46.215Z,1.2
2023-03-28T23:47:48.190Z,1.1
2023-03-28T23:50:50.138Z,1.2
2023-03-28T23:53:52.118Z,1.2
2023-03-28T23:56:54.156Z,1
2023-03-28T23:59:56.056Z,1
